Time;durP1;ratioP1;P1;durP2;ratioP2;P2;SDS_P1;SDS_P2;PMS_P1;PMS_P2;Temp;Humidity;BMP_temperature;BMP_pressure;BME280_temperature;BME280_humidity;BME280_pressure;Samples;Min_cycle;Max_cycle;Signal;HPM_P1;HPM_P2
2021/12/03 00:01:05;;;;;;;4.45;2.20;;;;;;;4.18;87.27;93977.34;5076107;28;20098;-78
2021/12/03 00:03:33;;;;;;;3.17;2.42;;;;;;;4.11;87.46;93971.47;5079659;28;20037;-78
2021/12/03 00:06:00;;;;;;;4.22;2.15;;;;;;;3.99;87.13;93963.63;5073386;28;20060;-78
2021/12/03 00:08:27;;;;;;;6.93;3.05;;;;;;;3.96;88.49;93959.69;5079822;28;20047;-78
2021/12/03 00:10:58;;;;;;;4.63;2.47;;;;;;;4.00;88.55;93966.00;5083723;28;20117;-77
2021/12/03 00:13:27;;;;;;;3.33;1.70;;;;;;;3.95;88.66;93968.41;5080433;28;20040;-77
2021/12/03 00:15:56;;;;;;;4.45;2.20;;;;;;;3.69;90.32;93960.88;5076451;28;20037;-78
2021/12/03 00:18:24;;;;;;;3.83;2.70;;;;;;;3.50;91.80;93960.81;5079190;28;20040;-78
2021/12/03 00:20:52;;;;;;;8.75;2.22;;;;;;;3.43;92.12;93960.06;5084430;28;20124;-78
2021/12/03 00:23:21;;;;;;;5.97;2.50;;;;;;;3.30;93.34;93939.56;5076604;28;20035;-78
2021/12/03 00:25:48;;;;;;;4.88;2.67;;;;;;;3.10;94.95;93961.03;5078796;28;20032;-77
2021/12/03 00:28:15;;;;;;;4.55;2.00;;;;;;;3.22;94.90;93943.97;5077733;28;20052;-78
2021/12/03 00:30:42;;;;;;;4.72;2.63;;;;;;;3.34;93.83;93940.72;5078601;28;20109;-78
2021/12/03 00:33:09;;;;;;;5.60;2.38;;;;;;;3.38;93.56;93941.88;5073633;28;20049;-77
2021/12/03 00:35:36;;;;;;;4.60;2.17;;;;;;;3.50;93.46;93939.44;5079482;28;20040;-78
2021/12/03 00:38:03;;;;;;;3.92;2.65;;;;;;;3.58;92.90;93944.31;5075515;28;20165;-78
2021/12/03 00:40:34;;;;;;;3.40;2.25;;;;;;;3.71;91.92;93946.00;5072913;28;20044;-78
2021/12/03 00:43:02;;;;;;;5.38;1.95;;;;;;;3.86;92.19;93949.06;5074855;28;20046;-77
2021/12/03 00:45:31;;;;;;;4.07;1.80;;;;;;;4.16;91.81;93943.25;5075398;28;20042;-77
2021/12/03 00:48:00;;;;;;;3.63;1.75;;;;;;;4.35;91.20;93947.44;5078130;28;20071;-78
2021/12/03 00:50:27;;;;;;;5.78;1.83;;;;;;;4.71;88.61;93956.19;5077558;28;20054;-78
2021/12/03 00:52:56;;;;;;;3.55;2.00;;;;;;;4.72;88.09;93947.47;5078042;28;20104;-77
2021/12/03 00:55:24;;;;;;;4.22;2.10;;;;;;;4.63;89.22;93950.53;5075633;28;20119;-79
2021/12/03 00:57:51;;;;;;;3.40;1.70;;;;;;;4.63;88.81;93948.75;5077425;28;20040;-78
2021/12/03 01:00:24;;;;;;;7.55;1.90;;;;;;;4.60;89.61;93919.00;5077928;28;20051;-78
2021/12/03 01:02:55;;;;;;;2.80;1.75;;;;;;;5.83;85.33;93921.31;5082256;28;20105;-79
2021/12/03 01:05:23;;;;;;;3.05;2.08;;;;;;;6.24;82.70;93932.63;5082004;28;20063;-78
2021/12/03 01:07:50;;;;;;;4.22;2.35;;;;;;;6.04;81.50;93947.69;5076015;28;20573;-78
2021/12/03 01:10:18;;;;;;;6.53;2.63;;;;;;;6.54;79.20;93944.63;5080506;28;20090;-78
2021/12/03 01:12:45;;;;;;;4.15;2.25;;;;;;;6.82;77.27;93938.72;5082559;28;20480;-79
2021/12/03 01:15:16;;;;;;;2.28;1.40;;;;;;;7.25;75.81;93954.81;5075440;28;20175;-78
2021/12/03 01:17:44;;;;;;;4.20;2.83;;;;;;;7.53;74.31;93954.00;5075769;28;20050;-79
2021/12/03 01:20:13;;;;;;;2.53;1.65;;;;;;;7.96;71.63;93920.72;5078627;28;20423;-78
2021/12/03 01:22:43;;;;;;;7.35;1.88;;;;;;;8.59;69.37;93955.91;5077390;28;20037;-78
2021/12/03 01:25:12;;;;;;;10.80;3.20;;;;;;;8.65;68.09;93984.53;5075052;28;20037;-78
2021/12/03 01:27:39;;;;;;;6.03;2.45;;;;;;;8.35;69.30;93964.88;5072885;28;20517;-77
2021/12/03 01:30:10;;;;;;;3.33;1.83;;;;;;;7.97;70.38;93974.94;5079357;28;20059;-79
2021/12/03 01:32:38;;;;;;;2.33;1.50;;;;;;;7.66;71.65;93973.66;5080595;28;20036;-79
2021/12/03 01:35:06;;;;;;;3.17;2.15;;;;;;;7.55;73.45;93940.84;5072449;28;20044;-78
2021/12/03 01:37:34;;;;;;;4.53;2.85;;;;;;;7.42;73.16;93953.06;5080133;28;20040;-79
2021/12/03 01:40:01;;;;;;;3.30;1.90;;;;;;;7.55;73.16;93971.94;5080442;28;20505;-79
2021/12/03 01:42:28;;;;;;;5.50;2.72;;;;;;;6.98;73.34;93939.81;5075378;28;20047;-79
2021/12/03 01:44:54;;;;;;;2.78;1.77;;;;;;;6.61;76.31;93952.25;5075600;28;20047;-78
2021/12/03 01:47:21;;;;;;;5.78;3.72;;;;;;;6.34;79.88;93910.56;5076614;28;20044;-78
2021/12/03 01:49:48;;;;;;;3.80;2.30;;;;;;;6.28;79.27;93944.09;5082458;28;20044;-78
2021/12/03 01:52:15;;;;;;;5.85;3.20;;;;;;;6.47;77.95;93947.34;5077539;28;20039;-77
2021/12/03 01:54:42;;;;;;;3.95;2.40;;;;;;;6.17;79.02;93944.88;5077378;28;20044;-78
2021/12/03 01:57:09;;;;;;;2.65;1.63;;;;;;;6.29;78.96;93940.47;5076046;28;20058;-78
2021/12/03 01:59:36;;;;;;;6.22;1.85;;;;;;;6.16;79.89;93945.91;5075175;28;20036;-77
2021/12/03 02:02:04;;;;;;;3.63;1.80;;;;;;;6.02;81.54;93918.69;5073446;28;20040;-78
2021/12/03 02:04:31;;;;;;;2.88;1.90;;;;;;;5.89;81.86;93920.44;5077352;28;20063;-78
2021/12/03 02:06:58;;;;;;;6.57;2.75;;;;;;;6.16;80.84;93945.91;5076623;28;20067;-78
2021/12/03 02:09:25;;;;;;;5.05;3.00;;;;;;;6.24;78.39;93958.47;5073756;28;20056;-79
2021/12/03 02:11:52;;;;;;;5.05;3.17;;;;;;;5.83;79.48;93936.81;5075872;28;20556;-78
2021/12/03 02:14:21;;;;;;;6.18;3.15;;;;;;;5.97;79.66;93913.41;5079780;28;20063;-78
2021/12/03 02:16:48;;;;;;;8.50;5.68;;;;;;;5.57;80.53;93973.41;5073024;28;20412;-78
2021/12/03 02:19:15;;;;;;;5.35;2.38;;;;;;;5.49;80.70;93946.88;5076655;28;20044;-78
2021/12/03 02:21:42;;;;;;;8.05;3.67;;;;;;;5.68;80.48;93908.06;5078554;28;20040;-78
2021/12/03 02:24:09;;;;;;;2.65;2.00;;;;;;;6.16;80.54;93909.69;5076563;28;20037;-79
2021/12/03 02:26:37;;;;;;;7.07;3.83;;;;;;;6.18;77.17;93940.50;5076634;28;20040;-78
2021/12/03 02:29:04;;;;;;;6.43;3.78;;;;;;;6.26;77.50;93920.25;5078155;28;20043;-78
2021/12/03 02:31:30;;;;;;;9.15;3.35;;;;;;;5.97;78.07;93916.75;5073650;28;20055;-78
2021/12/03 02:33:57;;;;;;;4.47;2.63;;;;;;;5.84;78.60;93917.75;5075265;28;20572;-78
2021/12/03 02:36:25;;;;;;;7.30;2.65;;;;;;;5.84;77.81;93932.47;5079829;28;20063;-79
2021/12/03 02:38:52;;;;;;;6.60;2.50;;;;;;;5.46;81.31;93911.16;5079338;28;20036;-78
2021/12/03 02:41:18;;;;;;;5.97;3.90;;;;;;;5.43;80.63;93942.59;5072574;28;20114;-78
2021/12/03 02:43:46;;;;;;;6.95;2.63;;;;;;;5.00;83.06;93891.94;5078609;28;20127;-79
2021/12/03 02:46:13;;;;;;;4.78;2.83;;;;;;;4.90;84.45;93959.56;5075073;28;20037;-78
2021/12/03 02:48:41;;;;;;;9.82;2.88;;;;;;;4.68;86.12;93887.00;5073326;28;20044;-78
2021/12/03 02:51:09;;;;;;;4.38;2.47;;;;;;;4.34;88.01;93925.25;5079988;28;20044;-78
2021/12/03 02:53:37;;;;;;;11.18;5.68;;;;;;;4.46;86.74;93942.56;5073886;28;20056;-78
2021/12/03 02:56:05;;;;;;;7.22;3.40;;;;;;;4.54;87.45;93919.09;5072138;28;20047;-78
2021/12/03 02:58:33;;;;;;;14.75;6.15;;;;;;;4.43;87.05;93943.81;5074140;28;20036;-78
2021/12/03 03:01:02;;;;;;;4.95;2.70;;;;;;;4.32;86.69;93901.47;5069370;28;20040;-77
2021/12/03 03:03:29;;;;;;;4.43;2.92;;;;;;;4.52;87.17;93931.41;5074631;28;20041;-77
2021/12/03 03:05:59;;;;;;;3.45;2.53;;;;;;;4.40;87.68;93934.69;5075700;28;20050;-77
2021/12/03 03:08:28;;;;;;;6.20;3.13;;;;;;;4.51;87.39;93932.41;5079104;28;20045;-77
2021/12/03 03:10:56;;;;;;;7.07;2.78;;;;;;;4.47;87.72;93933.84;5073814;28;20039;-77
2021/12/03 03:13:24;;;;;;;6.10;2.53;;;;;;;4.47;87.16;93944.16;5076647;28;20048;-79
2021/12/03 03:15:52;;;;;;;4.05;2.38;;;;;;;4.43;88.82;93910.28;5077606;28;20059;-78
2021/12/03 03:18:26;;;;;;;5.80;2.15;;;;;;;4.54;87.62;93939.72;5071168;28;20036;-78
2021/12/03 03:20:55;;;;;;;3.78;2.17;;;;;;;4.65;86.79;93931.25;5076147;28;20039;-78
2021/12/03 03:23:23;;;;;;;6.40;2.92;;;;;;;4.56;87.81;93953.19;5071977;28;20045;-78
2021/12/03 03:25:51;;;;;;;9.90;3.95;;;;;;;4.58;88.52;93909.91;5075859;28;20131;-78
2021/12/03 03:28:19;;;;;;;6.47;2.30;;;;;;;4.40;89.03;93908.91;5076573;28;20122;-76
2021/12/03 03:30:49;;;;;;;4.82;2.67;;;;;;;4.51;88.23;93955.63;5075736;28;20055;-77
2021/12/03 03:33:17;;;;;;;3.90;2.80;;;;;;;4.57;87.90;93960.72;5075490;28;20108;-78
2021/12/03 03:35:44;;;;;;;3.95;2.50;;;;;;;4.46;89.29;93934.84;5071295;28;20123;-76
2021/12/03 03:38:13;;;;;;;5.25;2.88;;;;;;;4.43;89.39;93943.00;5074949;28;20559;-78
2021/12/03 03:40:42;;;;;;;4.82;2.67;;;;;;;4.47;88.30;93914.00;5076428;28;20119;-78
2021/12/03 03:43:09;;;;;;;4.55;2.92;;;;;;;4.53;89.66;93932.97;5071624;28;20519;-77
2021/12/03 03:45:38;;;;;;;4.10;2.63;;;;;;;4.38;89.92;93921.22;5074043;28;20040;-78
2021/12/03 03:48:05;;;;;;;4.82;1.90;;;;;;;4.47;89.51;93933.84;5074943;28;20047;-77
2021/12/03 03:50:32;;;;;;;5.32;2.50;;;;;;;4.62;88.75;93941.22;5075201;28;20414;-77
2021/12/03 03:53:00;;;;;;;6.07;2.78;;;;;;;4.57;89.24;93944.44;5076536;28;20041;-77
2021/12/03 03:55:27;;;;;;;6.40;2.50;;;;;;;4.59;88.99;93947.59;5079987;28;20037;-77
2021/12/03 03:57:57;;;;;;;2.42;1.95;;;;;;;4.50;89.92;93943.72;5077868;28;20097;-76
2021/12/03 04:00:32;;;;;;;4.32;2.35;;;;;;;4.61;87.82;93966.25;5075908;28;20045;-76
2021/12/03 04:03:00;;;;;;;4.15;2.30;;;;;;;4.68;87.62;93979.84;5075153;28;20048;-76
2021/12/03 04:05:27;;;;;;;5.63;2.65;;;;;;;4.59;89.27;93948.38;5073756;28;20047;-76
2021/12/03 04:07:54;;;;;;;5.53;2.92;;;;;;;4.45;89.64;93956.47;5071575;28;20044;-77
2021/12/03 04:10:22;;;;;;;5.43;2.35;;;;;;;4.43;89.11;93979.09;5077308;28;20425;-76
2021/12/03 04:12:48;;;;;;;3.58;2.25;;;;;;;4.33;90.38;93926.25;5078704;28;20037;-76
2021/12/03 04:15:16;;;;;;;5.15;2.40;;;;;;;4.31;89.98;93961.75;5075177;28;20524;-76
2021/12/03 04:17:43;;;;;;;4.55;2.60;;;;;;;4.17;91.66;93929.38;5077939;28;20036;-76
2021/12/03 04:20:12;;;;;;;5.28;2.80;;;;;;;4.13;92.06;93934.16;5074491;28;20043;-76
2021/12/03 04:22:40;;;;;;;4.28;2.55;;;;;;;4.10;92.61;93910.59;5073187;28;20035;-76
2021/12/03 04:25:11;;;;;;;3.30;1.75;;;;;;;4.06;92.71;93942.97;5080280;28;20051;-75
2021/12/03 04:27:38;;;;;;;6.18;2.97;;;;;;;4.15;92.08;93949.41;5071932;28;20032;-76
2021/12/03 04:30:09;;;;;;;4.78;2.53;;;;;;;4.18;91.97;93967.03;5077135;28;20070;-76
2021/12/03 04:32:37;;;;;;;4.15;2.63;;;;;;;4.15;92.09;93946.84;5079881;28;20111;-76
2021/12/03 04:35:04;;;;;;;4.43;2.47;;;;;;;4.19;91.71;93940.25;5074542;28;20036;-77
2021/12/03 04:37:31;;;;;;;4.85;2.58;;;;;;;4.16;91.56;93912.31;5076313;28;20425;-76
2021/12/03 04:39:59;;;;;;;7.35;3.13;;;;;;;4.16;91.80;93922.63;5080006;28;20131;-76
2021/12/03 04:42:26;;;;;;;6.97;3.30;;;;;;;4.27;91.65;93964.97;5069139;28;20099;-76
2021/12/03 04:44:52;;;;;;;5.10;2.42;;;;;;;4.13;91.11;93948.84;5079630;28;20040;-76
2021/12/03 04:47:19;;;;;;;6.45;2.70;;;;;;;4.46;90.58;93958.03;5072399;28;20052;-76
2021/12/03 04:49:46;;;;;;;4.63;2.45;;;;;;;4.31;92.10;93951.44;5076049;28;20041;-76
2021/12/03 04:52:13;;;;;;;5.10;2.75;;;;;;;4.34;92.41;93951.03;5080093;28;20048;-76
2021/12/03 04:54:42;;;;;;;7.90;3.10;;;;;;;4.42;91.50;93962.06;5079439;28;20054;-76
2021/12/03 04:57:09;;;;;;;7.30;4.10;;;;;;;4.50;91.13;93974.66;5074038;28;20040;-76
2021/12/03 04:59:36;;;;;;;6.22;3.50;;;;;;;4.56;90.82;93997.03;5072635;28;20421;-76
2021/12/03 05:02:03;;;;;;;4.60;2.65;;;;;;;4.68;89.91;93992.75;5075305;28;20040;-76
2021/12/03 05:04:36;;;;;;;4.75;1.95;;;;;;;4.66;90.96;93963.78;5076032;28;20055;-75
2021/12/03 05:09:36;;;;;;;6.20;2.40;;;;;;;4.82;88.18;93992.59;5075732;28;20055;-75
2021/12/03 05:12:04;;;;;;;5.38;2.70;;;;;;;4.95;88.85;94008.72;5072342;28;20143;-75
2021/12/03 05:14:31;;;;;;;5.05;3.25;;;;;;;4.99;88.28;94024.56;5070060;28;20827;-75
2021/12/03 05:16:58;;;;;;;2.97;1.90;;;;;;;4.97;88.38;94011.09;5073755;28;20048;-76
2021/12/03 05:19:25;;;;;;;13.18;2.85;;;;;;;4.94;87.93;94001.19;5068742;28;20127;-76
2021/12/03 05:21:52;;;;;;;4.55;2.90;;;;;;;4.91;86.52;94006.78;5076497;28;20048;-76
2021/12/03 05:24:19;;;;;;;11.13;4.53;;;;;;;5.07;86.47;94006.19;5073732;28;20037;-77
2021/12/03 05:26:46;;;;;;;5.88;2.58;;;;;;;4.78;89.40;93969.78;5071092;28;20039;-76
2021/12/03 05:29:14;;;;;;;4.07;2.38;;;;;;;4.85;89.50;94002.50;5074679;28;20050;-75
2021/12/03 05:31:42;;;;;;;11.65;3.25;;;;;;;4.93;88.12;94030.56;5076425;28;20050;-76
2021/12/03 05:34:27;;;;;;;3.25;2.38;;;;;;;4.98;88.64;93986.84;5071422;28;20033;-76
2021/12/03 05:36:54;;;;;;;6.13;2.65;;;;;;;5.00;87.45;94005.47;5079606;28;20549;-75
2021/12/03 05:39:21;;;;;;;6.90;3.17;;;;;;;4.98;88.43;93961.81;5071629;28;20142;-75
2021/12/03 05:41:48;;;;;;;4.60;2.17;;;;;;;4.72;89.51;93973.25;5072851;28;20043;-75
2021/12/03 05:44:15;;;;;;;6.90;2.88;;;;;;;4.85;90.45;93981.84;5077176;28;20040;-76
2021/12/03 05:46:42;;;;;;;5.18;2.88;;;;;;;4.85;89.87;93992.16;5070690;28;20044;-75
2021/12/03 05:49:08;;;;;;;7.07;3.55;;;;;;;4.99;89.02;94009.09;5071010;28;20049;-76
2021/12/03 05:51:35;;;;;;;5.22;2.45;;;;;;;5.01;89.41;94007.06;5075793;28;20074;-76
2021/12/03 05:54:03;;;;;;;5.70;2.83;;;;;;;4.81;90.39;93985.84;5072638;28;20032;-75
2021/12/03 05:56:30;;;;;;;3.30;2.22;;;;;;;4.87;91.46;94021.13;5071953;28;20127;-76
2021/12/03 05:58:59;;;;;;;5.68;3.33;;;;;;;5.01;89.59;94014.81;5070515;28;20493;-76
2021/12/03 06:01:27;;;;;;;5.13;2.70;;;;;;;5.28;88.67;94011.94;5070332;28;20036;-76
2021/12/03 06:03:54;;;;;;;7.30;2.55;;;;;;;5.22;89.47;94018.75;5067970;28;20120;-75
2021/12/03 06:06:21;;;;;;;5.80;2.85;;;;;;;5.30;88.41;94015.06;5072305;28;20048;-76
2021/12/03 06:08:49;;;;;;;3.72;2.20;;;;;;;5.28;88.27;94017.09;5067556;28;20055;-76
2021/12/03 06:11:16;;;;;;;7.85;3.20;;;;;;;5.17;88.82;93988.41;5074424;28;20036;-76
2021/12/03 06:13:43;;;;;;;4.60;2.83;;;;;;;5.35;88.16;94028.13;5075351;28;20044;-75
2021/12/03 06:16:12;;;;;;;2.85;1.85;;;;;;;5.43;86.77;93998.63;5073361;28;20082;-75
2021/12/03 06:18:40;;;;;;;3.75;2.22;;;;;;;5.45;87.11;93987.06;5073212;28;20115;-77
2021/12/03 06:21:08;;;;;;;3.80;2.45;;;;;;;5.41;86.93;94032.41;5071672;28;20036;-77
2021/12/03 06:23:36;;;;;;;5.90;3.72;;;;;;;5.26;86.46;94008.78;5069197;28;20066;-78
2021/12/03 06:26:05;;;;;;;6.13;2.88;;;;;;;5.34;87.64;94031.69;5076509;28;20032;-75
2021/12/03 06:28:32;;;;;;;5.50;2.78;;;;;;;5.36;87.38;94034.84;5075179;28;20044;-76
2021/12/03 06:30:59;;;;;;;4.68;3.03;;;;;;;5.42;86.91;94044.31;5072775;28;20045;-76
2021/12/03 06:33:28;;;;;;;4.47;2.80;;;;;;;5.39;87.17;94029.25;5075323;28;20438;-76
2021/12/03 06:35:56;;;;;;;5.10;2.63;;;;;;;5.36;88.10;94001.28;5076136;28;20048;-76
2021/12/03 06:38:24;;;;;;;4.57;2.58;;;;;;;5.41;87.53;93996.25;5073783;28;20044;-77
2021/12/03 06:40:52;;;;;;;8.50;4.60;;;;;;;5.58;86.95;94040.31;5075159;28;20044;-77
2021/12/03 06:43:19;;;;;;;5.88;3.78;;;;;;;5.53;86.99;94025.50;5068687;28;20048;-76
2021/12/03 06:45:47;;;;;;;9.38;3.47;;;;;;;5.57;87.36;94030.25;5071808;28;20040;-76
2021/12/03 06:48:14;;;;;;;5.50;3.47;;;;;;;5.53;88.87;94030.66;5072765;28;20039;-77
2021/12/03 06:50:43;;;;;;;6.18;4.38;;;;;;;5.52;87.61;94034.25;5076467;28;20068;-77
2021/12/03 06:53:13;;;;;;;10.90;6.20;;;;;;;5.78;86.42;94091.78;5078262;28;20718;-76
2021/12/03 06:55:52;;;;;;;6.32;2.55;;;;;;;5.70;87.14;94009.38;5071577;28;20039;-76
2021/12/03 06:58:21;;;;;;;8.30;2.00;;;;;;;5.73;87.70;93993.44;5076426;28;20116;-77
2021/12/03 07:00:51;;;;;;;5.75;2.60;;;;;;;6.00;88.30;93999.03;5077600;28;20113;-76
2021/12/03 07:03:19;;;;;;;4.55;2.88;;;;;;;6.34;86.53;94016.59;5072605;28;20051;-76
2021/12/03 07:05:47;;;;;;;9.05;4.25;;;;;;;6.82;81.43;94046.63;5071478;28;20040;-76
2021/12/03 07:08:14;;;;;;;3.65;2.08;;;;;;;6.41;82.92;94050.91;5071538;28;20041;-76
2021/12/03 07:10:41;;;;;;;6.60;2.50;;;;;;;6.25;84.76;94068.66;5072063;28;20572;-76
2021/12/03 07:13:08;;;;;;;2.35;1.33;;;;;;;8.46;76.47;94056.66;5070357;28;20122;-76
2021/12/03 07:15:35;;;;;;;6.15;2.22;;;;;;;7.62;76.79;94071.81;5063227;28;20047;-75
2021/12/03 07:18:02;;;;;;;5.93;3.28;;;;;;;7.01;80.58;94049.91;5067519;28;20067;-76
2021/12/03 07:20:29;;;;;;;4.38;2.70;;;;;;;6.75;83.00;94054.50;5071101;28;20040;-74
2021/12/03 07:22:56;;;;;;;6.85;3.35;;;;;;;6.88;82.52;94035.41;5077594;28;20048;-77
2021/12/03 07:25:24;;;;;;;5.32;3.17;;;;;;;6.95;82.63;94051.59;5074812;28;20032;-77
2021/12/03 07:27:51;;;;;;;13.05;8.20;;;;;;;6.99;81.62;94076.00;5071941;28;20553;-77
2021/12/03 07:30:19;;;;;;;5.85;2.67;;;;;;;7.33;82.12;94036.53;5077675;28;20048;-75
2021/12/03 07:32:47;;;;;;;5.95;3.53;;;;;;;8.38;78.90;94042.25;5072977;28;20689;-75
2021/12/03 07:35:14;;;;;;;3.00;2.00;;;;;;;9.05;73.87;94077.00;5069908;28;20119;-74
2021/12/03 07:37:43;;;;;;;3.90;2.70;;;;;;;8.97;71.80;94071.19;5080738;28;20045;-76
2021/12/03 07:40:11;;;;;;;6.18;3.03;;;;;;;8.27;75.53;94048.31;5072484;28;20044;-77
2021/12/03 07:42:39;;;;;;;5.53;2.95;;;;;;;7.57;77.67;94040.63;5071382;28;20135;-77
2021/12/03 07:45:08;;;;;;;3.78;2.33;;;;;;;7.65;78.74;94081.75;5073102;28;21560;-78
2021/12/03 07:47:37;;;;;;;4.80;3.47;;;;;;;7.58;78.46;94075.09;5072011;28;20143;-78
2021/12/03 07:50:06;;;;;;;6.40;2.50;;;;;;;7.65;80.24;94014.34;5074242;28;20036;-77
2021/12/03 07:52:34;;;;;;;5.35;2.78;;;;;;;8.06;79.59;94066.13;5074167;28;20095;-76
2021/12/03 07:55:04;;;;;;;4.57;2.65;;;;;;;8.23;77.46;94033.22;5072506;28;20053;-77
2021/12/03 07:57:30;;;;;;;4.85;2.95;;;;;;;8.27;77.63;94066.47;5070414;28;20755;-76
2021/12/03 07:59:58;;;;;;;4.30;2.63;;;;;;;8.42;78.08;94048.56;5070982;28;20062;-76
2021/12/03 08:02:26;;;;;;;8.90;2.95;;;;;;;8.39;78.69;94070.56;5077571;28;20555;-76
2021/12/03 08:04:54;;;;;;;3.10;2.10;;;;;;;8.18;79.15;94043.50;5079864;28;20102;-76
2021/12/03 08:07:21;;;;;;;3.70;1.63;;;;;;;7.98;81.28;94043.94;5081807;28;20043;-76
2021/12/03 08:09:48;;;;;;;4.43;2.90;;;;;;;7.93;80.95;94040.50;5072604;28;20147;-75
2021/12/03 08:12:15;;;;;;;4.63;2.17;;;;;;;7.88;82.63;94001.50;5080957;28;20040;-77
2021/12/03 08:14:42;;;;;;;4.93;3.28;;;;;;;8.16;80.96;94014.44;5074829;28;20044;-75
2021/12/03 08:17:09;;;;;;;6.07;1.80;;;;;;;8.65;78.02;94049.44;5082124;28;20044;-76
2021/12/03 08:19:36;;;;;;;3.35;1.80;;;;;;;9.16;77.33;94032.75;5079902;28;20461;-77
2021/12/03 08:22:04;;;;;;;4.05;2.30;;;;;;;9.03;77.82;94040.88;5077250;28;20047;-76
2021/12/03 08:24:31;;;;;;;5.03;2.60;;;;;;;8.87;77.80;94091.03;5073231;28;20036;-76
2021/12/03 08:26:58;;;;;;;4.22;2.38;;;;;;;8.77;79.20;94063.13;5075481;28;20060;-77
2021/12/03 08:29:30;;;;;;;4.80;2.80;;;;;;;8.98;77.44;94067.56;5078117;28;20056;-77
2021/12/03 08:31:57;;;;;;;2.75;2.15;;;;;;;9.51;76.69;94049.00;5073082;28;20048;-78
2021/12/03 08:34:24;;;;;;;19.90;4.90;;;;;;;10.16;72.06;94054.34;5078617;28;20037;-78
2021/12/03 08:36:51;;;;;;;3.60;1.92;;;;;;;10.28;68.97;94041.91;5077972;28;20043;-79
2021/12/03 08:39:19;;;;;;;1.55;0.98;;;;;;;10.66;70.07;94053.16;5080308;28;20037;-79
2021/12/03 08:41:46;;;;;;;3.50;1.13;;;;;;;11.03;68.05;94037.50;5082346;28;20036;-80
2021/12/03 08:44:13;;;;;;;2.17;1.60;;;;;;;10.93;69.24;94058.31;5078906;28;20417;-78
2021/12/03 08:46:40;;;;;;;3.00;1.73;;;;;;;10.75;68.79;94061.31;5076716;28;20042;-80
2021/12/03 08:49:11;;;;;;;2.83;1.70;;;;;;;10.75;71.46;94054.28;5078019;28;20120;-79
2021/12/03 08:56:56;;;;;;;13.93;7.30;;;;;;;10.49;69.57;94079.34;5080461;28;20573;-78
2021/12/03 08:59:23;;;;;;;9.45;4.88;;;;;;;10.59;70.37;94083.84;5078119;28;20046;-78
2021/12/03 09:01:50;;;;;;;3.03;2.08;;;;;;;10.59;71.39;94068.22;5078729;28;20050;-78
2021/12/03 09:04:17;;;;;;;2.15;1.63;;;;;;;10.39;73.07;94035.81;5078478;28;20045;-77
2021/12/03 09:06:44;;;;;;;2.08;1.30;;;;;;;10.27;72.72;94029.94;5079639;28;20063;-76
2021/12/03 09:09:11;;;;;;;3.13;1.77;;;;;;;10.60;69.28;94085.44;5081546;28;20035;-79
2021/12/03 09:11:38;;;;;;;5.53;1.95;;;;;;;10.71;69.83;94071.44;5076957;28;20044;-78
2021/12/03 09:14:15;;;;;;;2.15;1.25;;;;;;;10.82;70.27;94065.28;5081068;28;20494;-78
2021/12/03 09:16:44;;;;;;;3.90;1.38;;;;;;;11.13;66.04;94072.47;5075104;28;20051;-78
2021/12/03 09:19:18;;;;;;;4.43;1.88;;;;;;;11.13;65.42;94078.50;5073559;28;20046;-78
2021/12/03 09:21:46;;;;;;;;;;;;;;;10.85;68.48;94079.63;5078922;28;20417;-78
2021/12/03 09:24:17;;;;;;;10.80;4.63;;;;;;;10.86;67.66;94074.16;5075966;28;19928;-78
2021/12/03 09:26:44;;;;;;;7.35;2.58;;;;;;;11.05;66.74;94058.13;5074730;28;20506;-78
2021/12/03 09:29:15;;;;;;;3.40;2.40;;;;;;;11.16;66.25;94062.34;5073821;28;20048;-78
2021/12/03 09:31:43;;;;;;;18.15;6.30;;;;;;;11.20;66.71;94054.78;5072352;28;20053;-79
2021/12/03 09:34:13;;;;;;;5.72;3.67;;;;;;;11.17;65.86;94055.31;5076724;28;20032;-79
2021/12/03 09:36:41;;;;;;;2.40;1.55;;;;;;;11.44;63.14;94052.56;5075674;28;20068;-78
2021/12/03 09:39:14;;;;;;;6.65;3.35;;;;;;;11.56;64.12;94060.97;5075936;28;20041;-76
2021/12/03 09:41:41;;;;;;;11.02;6.13;;;;;;;11.37;67.48;94057.25;5070755;28;20037;-81
2021/12/03 09:44:08;;;;;;;15.80;5.35;;;;;;;11.36;66.01;94066.09;5069800;28;20044;-76
2021/12/03 09:46:35;;;;;;;5.47;3.00;;;;;;;11.57;64.96;94077.41;5070131;28;20158;-79
2021/12/03 09:51:46;;;;;;;4.40;1.88;;;;;;;11.62;63.75;94082.63;5080943;28;20089;-80
2021/12/03 09:56:41;;;;;;;6.18;3.72;;;;;;;11.53;66.58;94055.47;5080668;28;20528;-82
2021/12/03 10:20:07;;;;;;;9.18;4.03;;;;;;;11.67;65.16;94052.13;5076883;28;20050;-77
2021/12/03 10:41:35;;;;;;;3.30;2.38;;;;;;;12.12;62.17;94046.50;5071675;28;20078;-76
2021/12/03 10:50:02;;;;;;;1.83;0.65;;;;;;;12.18;58.66;94048.09;5079137;28;20044;-77
2021/12/03 10:59:01;;;;;;;7.38;4.20;;;;;;;11.94;64.32;94045.16;5078486;28;20104;-77
2021/12/03 11:13:11;;;;;;;1.70;1.00;;;;;;;11.97;57.60;94071.53;5078030;28;20086;-77
2021/12/03 11:48:29;;;;;;;75.10;34.10;;;;;;;12.36;55.46;94058.03;5072198;28;20044;-75
2021/12/03 13:31:20;;;;;;;9.05;5.25;;;;;;;12.99;53.74;94111.84;5080911;28;20095;-76
2021/12/03 14:04:57;;;;;;;5.45;2.10;;;;;;;12.65;54.58;94086.25;5076102;28;20051;-78
2021/12/03 14:30:52;;;;;;;3.75;0.95;;;;;;;12.56;54.30;94066.91;5077489;28;20074;-78
2021/12/03 14:35:07;;;;;;;7.75;1.85;;;;;;;12.62;54.18;94077.13;5077784;28;20040;-76
2021/12/03 14:44:28;;;;;;;3.90;1.90;;;;;;;12.64;53.86;94066.41;5076637;28;20417;-79
2021/12/03 14:57:15;;;;;;;11.23;5.20;;;;;;;12.65;55.61;94075.00;5075044;28;20066;-79
2021/12/03 15:00:06;;;;;;;5.72;2.00;;;;;;;12.59;54.31;94079.47;5078913;28;20507;-80
2021/12/03 15:03:02;;;;;;;9.48;2.53;;;;;;;12.48;54.63;94054.38;5078758;28;20481;-78
2021/12/03 15:08:16;;;;;;;3.92;1.70;;;;;;;12.50;53.39;94078.41;5079198;28;20044;-79
2021/12/03 15:17:35;;;;;;;6.50;3.08;;;;;;;12.54;54.94;94084.69;5073046;28;20040;-79
2021/12/03 15:19:06;;;;;;;9.05;2.35;;;;;;;12.54;54.48;94079.47;5063984;28;20056;-80
2021/12/03 15:33:25;;;;;;;10.43;3.75;;;;;;;12.07;57.84;94103.94;5073023;28;20067;-78
2021/12/03 15:35:23;;;;;;;4.70;1.60;;;;;;;12.22;56.54;94094.28;5069038;28;20056;-79
2021/12/03 16:05:13;;;;;;;48.90;14.43;;;;;;;11.41;67.02;94168.56;5078931;28;20048;-81
2021/12/03 16:23:34;;;;;;;21.02;8.23;;;;;;;9.74;79.11;94168.34;5078291;28;20044;-79
2021/12/03 16:53:02;;;;;;;14.90;6.53;;;;;;;7.30;92.97;94219.13;5076292;28;20531;-80
2021/12/03 16:55:30;;;;;;;9.93;5.25;;;;;;;7.03;93.96;94232.47;5080502;28;20409;-78
2021/12/03 16:57:57;;;;;;;8.32;4.97;;;;;;;6.85;95.56;94229.97;5077224;28;20048;-78
2021/12/03 17:00:37;;;;;;;10.07;5.07;;;;;;;6.70;96.88;94241.53;5068803;28;20059;-78
2021/12/03 17:03:24;;;;;;;15.30;7.43;;;;;;;6.69;97.26;94239.94;5076123;28;20044;-75
2021/12/03 17:07:10;;;;;;;12.10;5.95;;;;;;;6.58;98.99;94258.81;5080742;28;20032;-78
2021/12/03 17:11:38;;;;;;;16.77;6.35;;;;;;;6.57;98.78;94283.13;5075612;28;20047;-79
2021/12/03 17:30:47;;;;;;;9.68;4.68;;;;;;;6.41;98.55;94288.88;5075096;28;20060;-77
2021/12/03 17:49:38;;;;;;;7.70;4.18;;;;;;;6.11;100.00;94305.16;5064781;28;20119;-77
2021/12/03 17:57:46;;;;;;;7.82;3.83;;;;;;;5.90;100.00;94314.84;5062417;28;20090;-76
2021/12/03 18:00:04;;;;;;;8.35;4.35;;;;;;;5.85;100.00;94319.91;5065907;28;20078;-76
2021/12/03 18:02:46;;;;;;;10.50;4.90;;;;;;;5.81;100.00;94317.94;5071458;28;20048;-77
2021/12/03 18:08:06;;;;;;;6.97;3.60;;;;;;;5.68;100.00;94316.28;5068479;28;20045;-76
2021/12/03 18:13:59;;;;;;;33.65;14.10;;;;;;;5.64;100.00;94330.63;5051966;28;20045;-76
2021/12/03 18:52:22;;;;;;;3.95;3.10;;;;;;;4.24;100.00;94368.31;5069433;28;20433;-75
2021/12/03 18:57:44;;;;;;;7.00;3.95;;;;;;;4.22;100.00;94383.19;5052669;28;20044;-75
2021/12/03 19:00:15;;;;;;;3.80;2.70;;;;;;;4.18;100.00;94392.34;5067890;28;20088;-74
2021/12/03 19:02:46;;;;;;;9.48;4.60;;;;;;;4.14;100.00;94388.56;5063551;28;20098;-76
2021/12/03 19:05:29;;;;;;;4.88;2.72;;;;;;;4.15;100.00;94405.63;5069592;28;20057;-76
2021/12/03 19:10:31;;;;;;;5.47;2.33;;;;;;;4.15;100.00;94390.16;5071005;28;20036;-76
2021/12/03 19:13:04;;;;;;;7.63;3.22;;;;;;;4.12;100.00;94390.53;5068321;28;20052;-75
2021/12/03 19:15:32;;;;;;;5.18;2.92;;;;;;;4.09;100.00;94396.09;5061008;28;20052;-75
2021/12/03 19:18:02;;;;;;;3.95;2.67;;;;;;;4.01;100.00;94390.16;5062986;28;20059;-75
2021/12/03 19:20:48;;;;;;;7.65;4.13;;;;;;;4.03;100.00;94402.84;5061842;28;20041;-75
2021/12/03 19:23:15;;;;;;;5.28;2.58;;;;;;;4.03;100.00;94397.69;5065664;28;20390;-75
2021/12/03 19:25:42;;;;;;;12.75;4.90;;;;;;;3.83;100.00;94410.59;5068389;28;20056;-76
2021/12/03 19:28:08;;;;;;;5.13;3.13;;;;;;;3.88;100.00;94405.63;5068345;28;20051;-75